Terminal Aerodrome Forecast
Issued by NWS

Current Version | Previous Version | Graphics & Text | Print | Product List | Glossary On
Versions: 1 2 3 4 5 6 7 8 9 10 11 12 13 14 15 16 17
294
FTUS41 KPBZ 232331
TAFMGW
TAF
KMGW 232331Z 2400/2424 VRB05KT P6SM SKC
     FM240900 35004KT P6SM BKN050
     FM241200 36004KT P6SM BKN025
     FM241600 35005KT P6SM SCT040=

USA.gov is the U.S. government's official web portal to all federal, state and local government web resources and services.